Date,TemperatureHighF,TemperatureAvgF,TemperatureLowF,DewpointHighF,DewpointAvgF,DewpointLowF,HumidityHigh,HumidityAvg,HumidityLow,PressureMaxIn,PressureMinIn,WindSpeedMaxMPH,WindSpeedAvgMPH,GustSpeedMaxMPH,PrecipitationSumIn
2013-2-1,64.3,51.4,46.0,47.2,28.7,-99.9,74,52,34,30.36,30.23,5,-70,13,0.00
2013-2-2,68.6,42.0,44.1,50.3,2.9,-99.9,77,45,27,30.31,30.17,2,-229,4,0.00
2013-2-3,67.6,13.3,52.0,55.8,-75.5,-99.9,90,13,64,30.20,30.10,2,-735,8,0.00
2013-2-4,50.1,1.1,50.1,-99.9,-99.9,-99.9,31,0,31,30.14,30.05,1,-950,1,0.00
2013-2-5,61.5,0.7,46.4,-99.9,-99.9,-99.9,0,0,100,30.09,30.00,1,-950,1,0.00
2013-2-6,70.3,1.0,70.3,-99.9,-99.9,-99.9,0,0,100,30.10,30.02,0,-964,0,0.00
2013-2-7,77.4,3.2,76.5,63.4,-93.1,-99.9,64,3,60,30.05,29.87,13,-922,13,0.00
2013-2-8,-200.0,0.0,200.0,-99.9,-99.9,-99.9,0,0,100,30.08,29.90,0,-971,0,0.00
2013-2-9,57.5,12.2,55.4,57.0,-71.8,-99.9,99,18,96,30.20,30.07,0,-763,0,0.00
2013-2-10,70.1,11.2,60.2,59.9,-78.1,-99.9,89,13,82,30.23,30.12,9,-742,9,0.00
2013-2-11,78.1,2.1,72.7,-99.9,-99.9,-99.9,0,0,100,30.18,30.07,9,-936,9,0.00
2013-2-12,78.5,5.9,72.8,70.1,-92.8,-99.9,79,3,77,30.08,29.94,13,-902,13,0.00
2013-2-13,80.5,15.7,58.7,73.5,-67.1,-99.9,98,20,77,29.98,29.84,13,-728,13,0.00
2013-2-14,62.9,5.0,58.4,61.4,-96.6,-99.9,99,4,92,30.05,29.92,4,-853,4,0.00
2013-2-15,63.7,24.9,53.9,56.2,-42.3,-99.9,100,31,69,30.09,29.96,1,-444,1,0.00
2013-2-16,66.0,9.9,53.3,46.7,-81.0,-99.9,68,8,49,30.14,29.95,14,-783,14,0.00
2013-2-17,53.2,33.7,37.0,37.0,-8.3,-99.9,85,38,38,30.34,30.15,8,-241,14,0.00
2013-2-18,68.1,51.4,36.5,52.0,37.7,22.5,88,63,28,30.36,30.20,6,1,15,0.00
2013-2-19,76.5,35.3,55.9,61.2,-25.2,-99.9,90,32,53,30.21,30.08,8,-453,14,0.00
2013-2-20,67.4,14.8,56.9,58.4,-69.3,-99.9,86,16,75,30.12,30.03,0,-734,9,0.00
2013-2-21,81.2,35.7,56.9,67.1,-31.8,-99.9,92,29,56,30.10,29.97,5,-502,8,0.00
2013-2-22,82.6,39.4,67.6,71.2,-18.7,-99.9,92,36,63,30.06,29.99,8,-458,14,0.00
2013-2-23,78.8,33.9,69.4,74.3,-34.1,-99.9,99,36,80,30.00,29.89,9,-502,9,0.00
2013-2-24,75.3,64.3,68.4,72.7,42.4,-99.9,100,81,86,29.96,29.87,4,-83,7,0.00
2013-2-25,81.8,53.1,68.4,72.1,10.6,-99.9,100,55,62,29.90,29.76,7,-222,13,0.00
2013-2-26,74.9,45.9,68.3,72.5,-7.1,-99.9,97,49,81,29.88,29.69,10,-324,15,0.00
2013-2-27,67.8,40.8,59.6,59.6,-13.5,-99.9,84,41,66,29.99,29.88,185,-310,185,0.00
2013-2-28,70.8,38.2,59.8,59.2,-18.9,-99.9,83,36,61,30.00,29.91,6,-391,9,0.00